Terminal Aerodrome Forecast
Issued by NWS Grand Forks, ND

Home | Current Version | Previous Version | Text Only | Print | Product List | Glossary On
Versions: 1 2 3 4 5 6 7 8 9 10 11 12 13 14 15 16 17 18 19 20
000
FTUS43 KFGF 290500
TAFGFK
TAF
KGFK 290528Z 2906/3006 16008KT P6SM BKN015 OVC025
     FM290900 16010KT P6SM BKN025
      TEMPO 2911/2914 3SM -FZDZSN BKN012 OVC025
     FM291400 19012G20KT 3SM -SN OVC015
     FM291800 32012G20KT P6SM OVC025=

USA.gov is the U.S. government's official web portal to all federal, state and local government web resources and services.